createdAt,value
2023-05-20T00:01:38.752Z,11.90
2023-05-20T00:11:42.311Z,10.50
2023-05-20T00:21:45.423Z,11.10
2023-05-20T00:31:48.504Z,10.40
2023-05-20T00:41:52.278Z,11.20
2023-05-20T00:51:55.524Z,10.80
2023-05-20T01:01:59.493Z,11.30
2023-05-20T01:12:09.883Z,10.10
2023-05-20T01:22:14.811Z,10.20
2023-05-20T01:32:40.658Z,9.70
2023-05-20T01:42:46.079Z,9.80
2023-05-20T01:52:49.882Z,9.60
2023-05-20T02:02:53.026Z,9.20
2023-05-20T02:12:56.353Z,9.50
2023-05-20T02:23:00.045Z,8.50
2023-05-20T02:33:03.078Z,7.80
2023-05-20T02:43:06.215Z,7.50
2023-05-20T02:53:10.470Z,8.10
2023-05-20T03:03:14.278Z,8.10
2023-05-20T03:13:17.653Z,7.80
2023-05-20T03:23:21.520Z,7.50
2023-05-20T03:33:26.480Z,7.00
2023-05-20T03:43:30.145Z,7.10
2023-05-20T03:53:33.572Z,7.70
2023-05-20T04:03:37.443Z,7.90
2023-05-20T04:13:40.939Z,8.10
2023-05-20T04:23:44.345Z,7.20
2023-05-20T04:33:47.701Z,5.50
2023-05-20T04:43:51.048Z,3.20
2023-05-20T04:53:54.574Z,3.60
2023-05-20T05:03:57.801Z,3.30
2023-05-20T05:14:00.922Z,4.00
2023-05-20T05:24:04.683Z,3.90
2023-05-20T05:34:07.927Z,3.90
2023-05-20T05:44:11.241Z,4.10
2023-05-20T05:54:14.481Z,4.10
2023-05-20T06:04:17.871Z,4.00
2023-05-20T06:14:21.400Z,4.20
2023-05-20T06:24:25.126Z,3.90
2023-05-20T06:34:28.675Z,4.10
2023-05-20T06:44:33.149Z,3.60
2023-05-20T06:55:06.288Z,4.00
2023-05-20T07:05:11.172Z,3.80
2023-05-20T07:15:14.530Z,4.00
2023-05-20T07:25:18.547Z,4.00
2023-05-20T07:35:22.048Z,3.80
2023-05-20T07:45:25.977Z,4.20
2023-05-20T07:55:29.347Z,4.10
2023-05-20T08:05:34.173Z,4.30
2023-05-20T08:15:37.506Z,5.10
2023-05-20T08:25:40.935Z,4.60
2023-05-20T08:35:44.507Z,4.60
2023-05-20T08:45:47.741Z,5.40
2023-05-20T08:56:01.002Z,5.70
2023-05-20T09:06:06.729Z,6.60
2023-05-20T09:16:11.233Z,6.60
2023-05-20T09:26:15.018Z,7.20
2023-05-20T09:36:20.547Z,7.30
2023-05-20T09:46:24.116Z,7.10
2023-05-20T09:56:28.614Z,8.40
2023-05-20T10:07:07.033Z,8.60
2023-05-20T10:17:19.701Z,8.50
2023-05-20T10:27:22.863Z,9.50
2023-05-20T10:37:32.900Z,8.50
2023-05-20T10:47:37.367Z,9.60
2023-05-20T10:57:41.588Z,9.90
2023-05-20T11:07:44.743Z,9.70
2023-05-20T11:17:59.918Z,10.40
2023-05-20T11:28:03.246Z,12.50
2023-05-20T11:38:10.421Z,11.40
2023-05-20T11:48:15.944Z,13.40
2023-05-20T11:58:25.031Z,13.00
2023-05-20T12:08:28.267Z,15.90
2023-05-20T12:18:32.082Z,14.50
2023-05-20T12:28:35.441Z,15.10
2023-05-20T12:38:38.614Z,16.40
2023-05-20T12:48:42.768Z,16.20
2023-05-20T12:58:46.199Z,15.90
2023-05-20T13:08:49.426Z,15.00
2023-05-20T13:18:52.916Z,15.00
2023-05-20T13:28:56.349Z,13.30
2023-05-20T13:38:59.697Z,15.00
2023-05-20T13:49:03.084Z,12.40
2023-05-20T13:59:06.298Z,12.50
2023-05-20T14:09:09.574Z,12.20
2023-05-20T14:19:12.900Z,11.80
2023-05-20T14:29:16.373Z,11.70
2023-05-20T14:39:19.454Z,10.50
2023-05-20T14:49:22.516Z,10.90
2023-05-20T14:59:25.937Z,10.90
2023-05-20T15:09:29.046Z,10.90
2023-05-20T15:19:33.107Z,11.70
2023-05-20T15:29:38.649Z,8.50
2023-05-20T15:39:42.353Z,9.20
2023-05-20T15:49:45.652Z,10.30
2023-05-20T15:59:48.760Z,11.10
2023-05-20T16:09:52.049Z,12.40
2023-05-20T16:19:55.471Z,11.50
2023-05-20T16:30:00.004Z,12.60
2023-05-20T16:40:04.561Z,12.00
2023-05-20T16:50:08.628Z,12.40
2023-05-20T17:00:13.450Z,13.60
2023-05-20T17:10:16.676Z,14.00
2023-05-20T17:20:20.032Z,12.60
2023-05-20T17:30:23.311Z,14.10
2023-05-20T17:40:26.531Z,13.30
2023-05-20T17:50:29.932Z,13.60
2023-05-20T18:00:34.726Z,15.20
2023-05-20T18:10:39.208Z,15.40
2023-05-20T18:20:42.375Z,14.50
2023-05-20T18:30:46.016Z,12.50
2023-05-20T18:40:49.739Z,15.60
2023-05-20T18:50:53.235Z,17.80
2023-05-20T19:01:48.209Z,18.60
2023-05-20T19:11:59.167Z,21.20
2023-05-20T19:22:03.109Z,28.80
2023-05-20T19:32:07.086Z,22.40
2023-05-20T19:42:10.726Z,13.70
2023-05-20T19:52:18.734Z,16.40
2023-05-20T20:02:23.302Z,15.50
2023-05-20T20:12:27.027Z,11.40
2023-05-20T20:22:30.912Z,13.60
2023-05-20T20:32:36.313Z,13.50
2023-05-20T20:42:42.167Z,13.50
2023-05-20T20:52:45.431Z,12.70
2023-05-20T21:02:52.915Z,12.90
2023-05-20T21:12:58.246Z,13.70
2023-05-20T21:23:01.508Z,12.50
2023-05-20T21:33:04.947Z,15.40
2023-05-20T21:43:08.095Z,13.00
2023-05-20T21:53:11.172Z,13.20
2023-05-20T22:03:14.821Z,35.50
2023-05-20T22:13:20.779Z,43.50
2023-05-20T22:23:23.976Z,45.70
2023-05-20T22:33:27.131Z,51.00
2023-05-20T22:43:30.248Z,27.80
2023-05-20T22:53:33.466Z,28.10
2023-05-20T23:03:36.778Z,30.20
2023-05-20T23:13:39.894Z,19.20
2023-05-20T23:23:42.945Z,15.10
2023-05-20T23:33:46.177Z,15.00
2023-05-20T23:43:49.407Z,13.90
2023-05-20T23:53:52.473Z,11.80
